PWSweather.com
Personal Weather Stations
Station Observations
KMAWOBUR2
West Side, Woburn, MA 01801

West SideWoburn, MA 01801

Lat: 42.458, Lon: -71.1955

Elevation: 160

Station Type: DAVIS/Vantage Pro2

http://pauland.net

High Low Average
Temperature 57.2°F14.0°C 37.2°F2.9°C 46.8°F8.2°C
Dew Point 39.1°F3.9°C 28.8°F-1.8°C 35.4°F1.9°C
Winds 5.0 mph 8.0 kmh Calm Calm 1.0 mph SSE1.6 kmh SSE
Wind Gusts 11.0 mph17.7 kmh -- 2.0 mph3.2 kmh
Humidity 92% 37% 67%
Pressure 30.44 in1030.8 mb 30.27 in1025.1 mb -
Precipitation 0.12 in3.0 mm - -
Hour Temp Dew Point Humidity Winds Wind Gusts Pressure Precip Precip Rate Daily Precip Total
12:00 AM 48.2°F9.0°C 36.2°F2.3°C 63% 2.0 mph 3.2 kmh 7.0 mph11.3 kmh 30.29 in1025.7 mb 0.00 in0.0 mm 0.00 in0.0 mm 0.12 in3.0 mm
12:05 AM 47.9°F8.8°C 36.3°F2.4°C 64% 2.0 mph 3.2 kmh 5.0 mph8.0 kmh 30.29 in1025.7 mb 0.00 in0.0 mm 0.00 in0.0 mm 0.12 in3.0 mm
12:10 AM 47.7°F8.7°C 36.1°F2.3°C 64% Calm Calm 2.0 mph3.2 kmh 30.29 in1025.7 mb 0.00 in0.0 mm 0.00 in0.0 mm 0.12 in3.0 mm
12:15 AM 47.6°F8.7°C 36.4°F2.4°C 65% 1.0 mph 1.6 kmh 3.0 mph4.8 kmh 30.30 in1026.1 mb 0.00 in0.0 mm 0.00 in0.0 mm 0.12 in3.0 mm
12:20 AM 47.3°F8.5°C 35.7°F2.1°C 64% Calm Calm 2.0 mph3.2 kmh 30.30 in1026.1 mb 0.00 in0.0 mm 0.00 in0.0 mm 0.12 in3.0 mm
12:25 AM 47.3°F8.5°C 36.1°F2.3°C 65% 2.0 mph 3.2 kmh 3.0 mph4.8 kmh 30.30 in1026.1 mb 0.00 in0.0 mm 0.00 in0.0 mm 0.12 in3.0 mm
12:30 AM 47.0°F8.3°C 36.2°F2.3°C 66% Calm Calm 3.0 mph4.8 kmh 30.30 in1026.1 mb 0.00 in0.0 mm 0.00 in0.0 mm 0.12 in3.0 mm
12:35 AM 46.8°F8.2°C 35.7°F2.1°C 65% 1.0 mph 1.6 kmh 4.0 mph6.4 kmh 30.30 in1026.1 mb 0.00 in0.0 mm 0.00 in0.0 mm 0.12 in3.0 mm
12:40 AM 46.8°F8.2°C 35.7°F2.1°C 65% 3.0 mph 4.8 kmh 4.0 mph6.4 kmh 30.30 in1026.1 mb 0.00 in0.0 mm 0.00 in0.0 mm 0.12 in3.0 mm
12:45 AM 46.8°F8.2°C 35.7°F2.1°C 65% 2.0 mph ENE3.2 kmh ENE 5.0 mph8.0 kmh 30.30 in1026.1 mb 0.00 in0.0 mm 0.00 in0.0 mm 0.12 in3.0 mm
12:50 AM 46.7°F8.2°C 35.2°F1.8°C 64% 3.0 mph 4.8 kmh 8.0 mph12.9 kmh 30.30 in1026.1 mb 0.00 in0.0 mm 0.00 in0.0 mm 0.12 in3.0 mm
12:55 AM 46.7°F8.2°C 35.2°F1.8°C 64% 3.0 mph 4.8 kmh 4.0 mph6.4 kmh 30.30 in1026.1 mb 0.00 in0.0 mm 0.00 in0.0 mm 0.12 in3.0 mm
01:00 AM 46.7°F8.2°C 35.2°F1.8°C 64% 2.0 mph 3.2 kmh 7.0 mph11.3 kmh 30.31 in1026.4 mb 0.00 in0.0 mm 0.00 in0.0 mm 0.12 in3.0 mm
01:05 AM 46.7°F8.2°C 35.2°F1.8°C 64% 2.0 mph NNE3.2 kmh NNE 4.0 mph6.4 kmh 30.31 in1026.4 mb 0.00 in0.0 mm 0.00 in0.0 mm 0.12 in3.0 mm
01:10 AM 46.5°F8.1°C 35.0°F1.7°C 64% 2.0 mph NNE3.2 kmh NNE 4.0 mph6.4 kmh 30.31 in1026.4 mb 0.00 in0.0 mm 0.00 in0.0 mm 0.12 in3.0 mm
01:15 AM 46.4°F8.0°C 35.3°F1.8°C 65% 1.0 mph 1.6 kmh 4.0 mph6.4 kmh 30.32 in1026.8 mb 0.00 in0.0 mm 0.00 in0.0 mm 0.12 in3.0 mm
01:20 AM 46.1°F7.8°C 35.4°F1.9°C 66% 1.0 mph 1.6 kmh 3.0 mph4.8 kmh 30.32 in1026.8 mb 0.00 in0.0 mm 0.00 in0.0 mm 0.12 in3.0 mm
01:25 AM 45.7°F7.6°C 35.8°F2.1°C 68% Calm Calm -- 30.32 in1026.8 mb 0.00 in0.0 mm 0.00 in0.0 mm 0.12 in3.0 mm
01:30 AM 45.2°F7.3°C 35.3°F1.8°C 68% Calm Calm -- 30.33 in1027.1 mb 0.00 in0.0 mm 0.00 in0.0 mm 0.12 in3.0 mm
01:35 AM 44.8°F7.1°C 35.6°F2.0°C 70% Calm Calm -- 30.33 in1027.1 mb 0.00 in0.0 mm 0.00 in0.0 mm 0.12 in3.0 mm
01:40 AM 44.3°F6.8°C 35.9°F2.2°C 72% Calm Calm -- 30.33 in1027.1 mb 0.00 in0.0 mm 0.00 in0.0 mm 0.12 in3.0 mm
01:45 AM 44.2°F6.8°C 35.8°F2.1°C 72% Calm Calm -- 30.34 in1027.4 mb 0.00 in0.0 mm 0.00 in0.0 mm 0.12 in3.0 mm
01:50 AM 43.6°F6.4°C 36.2°F2.3°C 75% Calm Calm -- 30.34 in1027.4 mb 0.00 in0.0 mm 0.00 in0.0 mm 0.12 in3.0 mm
01:55 AM 43.1°F6.2°C 36.1°F2.3°C 76% Calm Calm -- 30.34 in1027.4 mb 0.00 in0.0 mm 0.00 in0.0 mm 0.12 in3.0 mm
02:00 AM 42.6°F5.9°C 35.6°F2.0°C 76% Calm Calm -- 30.33 in1027.1 mb 0.00 in0.0 mm 0.00 in0.0 mm 0.12 in3.0 mm
02:05 AM 42.3°F5.7°C 35.6°F2.0°C 77% Calm Calm -- 30.33 in1027.1 mb 0.00 in0.0 mm 0.00 in0.0 mm 0.12 in3.0 mm
02:10 AM 42.2°F5.7°C 35.8°F2.1°C 78% Calm Calm -- 30.33 in1027.1 mb 0.00 in0.0 mm 0.00 in0.0 mm 0.12 in3.0 mm
02:15 AM 41.9°F5.5°C 35.9°F2.2°C 79% Calm Calm -- 30.33 in1027.1 mb 0.00 in0.0 mm 0.00 in0.0 mm 0.12 in3.0 mm
02:20 AM 41.8°F5.4°C 35.8°F2.1°C 79% Calm Calm -- 30.33 in1027.1 mb 0.00 in0.0 mm 0.00 in0.0 mm 0.12 in3.0 mm
02:25 AM 41.6°F5.3°C 35.6°F2.0°C 79% Calm Calm -- 30.33 in1027.1 mb 0.00 in0.0 mm 0.00 in0.0 mm 0.12 in3.0 mm
02:30 AM 41.6°F5.3°C 36.2°F2.3°C 81% Calm Calm -- 30.34 in1027.4 mb 0.00 in0.0 mm 0.00 in0.0 mm 0.12 in3.0 mm
02:35 AM 41.5°F5.3°C 36.1°F2.3°C 81% Calm Calm -- 30.34 in1027.4 mb 0.00 in0.0 mm 0.00 in0.0 mm 0.12 in3.0 mm
02:40 AM 41.5°F5.3°C 36.1°F2.3°C 81% Calm Calm -- 30.34 in1027.4 mb 0.00 in0.0 mm 0.00 in0.0 mm 0.12 in3.0 mm
02:45 AM 41.3°F5.2°C 35.9°F2.2°C 81% Calm Calm -- 30.34 in1027.4 mb 0.00 in0.0 mm 0.00 in0.0 mm 0.12 in3.0 mm
02:50 AM 41.2°F5.1°C 36.1°F2.3°C 82% Calm Calm -- 30.34 in1027.4 mb 0.00 in0.0 mm 0.00 in0.0 mm 0.12 in3.0 mm
02:55 AM 41.1°F5.1°C 36.0°F2.2°C 82% Calm Calm -- 30.34 in1027.4 mb 0.00 in0.0 mm 0.00 in0.0 mm 0.12 in3.0 mm
03:00 AM 40.9°F4.9°C 35.8°F2.1°C 82% 1.0 mph 1.6 kmh 2.0 mph3.2 kmh 30.34 in1027.4 mb 0.00 in0.0 mm 0.00 in0.0 mm 0.12 in3.0 mm
03:05 AM 40.8°F4.9°C 36.0°F2.2°C 83% Calm Calm 1.0 mph1.6 kmh 30.34 in1027.4 mb 0.00 in0.0 mm 0.00 in0.0 mm 0.12 in3.0 mm
03:10 AM 40.6°F4.8°C 35.8°F2.1°C 83% Calm Calm 1.0 mph1.6 kmh 30.34 in1027.4 mb 0.00 in0.0 mm 0.00 in0.0 mm 0.12 in3.0 mm
03:15 AM 40.5°F4.7°C 35.8°F2.1°C 83% Calm Calm -- 30.34 in1027.4 mb 0.00 in0.0 mm 0.00 in0.0 mm 0.12 in3.0 mm
03:20 AM 40.2°F4.6°C 35.8°F2.1°C 84% Calm Calm -- 30.34 in1027.4 mb 0.00 in0.0 mm 0.00 in0.0 mm 0.12 in3.0 mm
03:25 AM 40.1°F4.5°C 35.7°F2.1°C 84% Calm Calm -- 30.34 in1027.4 mb 0.00 in0.0 mm 0.00 in0.0 mm 0.12 in3.0 mm
03:30 AM 39.9°F4.4°C 35.5°F1.9°C 84% Calm Calm -- 30.34 in1027.4 mb 0.00 in0.0 mm 0.00 in0.0 mm 0.12 in3.0 mm
03:35 AM 39.8°F4.3°C 35.4°F1.9°C 84% Calm Calm -- 30.34 in1027.4 mb 0.00 in0.0 mm 0.00 in0.0 mm 0.12 in3.0 mm
03:40 AM 39.5°F4.2°C 35.1°F1.7°C 84% Calm Calm -- 30.34 in1027.4 mb 0.00 in0.0 mm 0.00 in0.0 mm 0.12 in3.0 mm
03:45 AM 39.2°F4.0°C 34.8°F1.6°C 84% Calm Calm -- 30.34 in1027.4 mb 0.00 in0.0 mm 0.00 in0.0 mm 0.12 in3.0 mm
03:50 AM 39.1°F3.9°C 35.0°F1.7°C 85% Calm Calm -- 30.34 in1027.4 mb 0.00 in0.0 mm 0.00 in0.0 mm 0.12 in3.0 mm
03:55 AM 38.9°F3.8°C 34.8°F1.6°C 85% Calm Calm -- 30.34 in1027.4 mb 0.00 in0.0 mm 0.00 in0.0 mm 0.12 in3.0 mm
04:00 AM 38.8°F3.8°C 34.7°F1.5°C 85% Calm Calm -- 30.34 in1027.4 mb 0.00 in0.0 mm 0.00 in0.0 mm 0.12 in3.0 mm
04:05 AM 38.6°F3.7°C 34.8°F1.6°C 86% Calm Calm -- 30.34 in1027.4 mb 0.00 in0.0 mm 0.00 in0.0 mm 0.00 in0.0 mm
04:10 AM 38.5°F3.6°C 34.7°F1.5°C 86% Calm Calm -- 30.34 in1027.4 mb 0.00 in0.0 mm 0.00 in0.0 mm 0.00 in0.0 mm
04:15 AM 38.3°F3.5°C 34.5°F1.4°C 86% Calm Calm -- 30.33 in1027.1 mb 0.00 in0.0 mm 0.00 in0.0 mm 0.00 in0.0 mm
04:20 AM 38.3°F3.5°C 34.8°F1.6°C 87% Calm Calm -- 30.33 in1027.1 mb 0.00 in0.0 mm 0.00 in0.0 mm 0.00 in0.0 mm
04:25 AM 38.3°F3.5°C 34.8°F1.6°C 87% Calm Calm -- 30.33 in1027.1 mb 0.00 in0.0 mm 0.00 in0.0 mm 0.00 in0.0 mm
04:30 AM 38.2°F3.4°C 34.7°F1.5°C 87% Calm Calm -- 30.35 in1027.8 mb 0.00 in0.0 mm 0.00 in0.0 mm 0.00 in0.0 mm
04:35 AM 38.0°F3.3°C 34.5°F1.4°C 87% Calm Calm -- 30.35 in1027.8 mb 0.00 in0.0 mm 0.00 in0.0 mm 0.00 in0.0 mm
04:40 AM 38.0°F3.3°C 34.5°F1.4°C 87% Calm Calm -- 30.35 in1027.8 mb 0.00 in0.0 mm 0.00 in0.0 mm 0.00 in0.0 mm
04:45 AM 38.0°F3.3°C 34.8°F1.6°C 88% Calm Calm -- 30.35 in1027.8 mb 0.00 in0.0 mm 0.00 in0.0 mm 0.00 in0.0 mm
04:50 AM 38.0°F3.3°C 34.8°F1.6°C 88% Calm Calm -- 30.35 in1027.8 mb 0.00 in0.0 mm 0.00 in0.0 mm 0.00 in0.0 mm
04:55 AM 38.0°F3.3°C 34.8°F1.6°C 88% Calm Calm -- 30.35 in1027.8 mb 0.00 in0.0 mm 0.00 in0.0 mm 0.00 in0.0 mm
05:00 AM 38.0°F3.3°C 34.8°F1.6°C 88% Calm Calm -- 30.35 in1027.8 mb 0.00 in0.0 mm 0.00 in0.0 mm 0.00 in0.0 mm
05:05 AM 37.9°F3.3°C 34.7°F1.5°C 88% Calm Calm -- 30.35 in1027.8 mb 0.00 in0.0 mm 0.00 in0.0 mm 0.00 in0.0 mm
05:10 AM 37.8°F3.2°C 34.9°F1.6°C 89% Calm Calm -- 30.35 in1027.8 mb 0.00 in0.0 mm 0.00 in0.0 mm 0.00 in0.0 mm
05:15 AM 37.8°F3.2°C 34.9°F1.6°C 89% Calm Calm -- 30.36 in1028.1 mb 0.00 in0.0 mm 0.00 in0.0 mm 0.00 in0.0 mm
05:20 AM 37.6°F3.1°C 34.7°F1.5°C 89% Calm Calm -- 30.36 in1028.1 mb 0.00 in0.0 mm 0.00 in0.0 mm 0.00 in0.0 mm
05:25 AM 37.6°F3.1°C 34.7°F1.5°C 89% Calm Calm -- 30.36 in1028.1 mb 0.00 in0.0 mm 0.00 in0.0 mm 0.00 in0.0 mm
05:30 AM 37.5°F3.1°C 34.6°F1.4°C 89% Calm Calm -- 30.36 in1028.1 mb 0.00 in0.0 mm 0.00 in0.0 mm 0.00 in0.0 mm
05:35 AM 37.5°F3.1°C 34.6°F1.4°C 89% Calm Calm -- 30.36 in1028.1 mb 0.00 in0.0 mm 0.00 in0.0 mm 0.00 in0.0 mm
05:40 AM 37.3°F2.9°C 34.4°F1.3°C 89% Calm Calm -- 30.36 in1028.1 mb 0.00 in0.0 mm 0.00 in0.0 mm 0.00 in0.0 mm
05:45 AM 37.2°F2.9°C 34.5°F1.4°C 90% Calm Calm -- 30.36 in1028.1 mb 0.00 in0.0 mm 0.00 in0.0 mm 0.00 in0.0 mm
05:50 AM 37.2°F2.9°C 34.5°F1.4°C 90% Calm Calm -- 30.36 in1028.1 mb 0.00 in0.0 mm 0.00 in0.0 mm 0.00 in0.0 mm
05:55 AM 37.2°F2.9°C 34.5°F1.4°C 90% Calm Calm -- 30.36 in1028.1 mb 0.00 in0.0 mm 0.00 in0.0 mm 0.00 in0.0 mm
06:00 AM 37.2°F2.9°C 34.5°F1.4°C 90% Calm Calm -- 30.37 in1028.4 mb 0.00 in0.0 mm 0.00 in0.0 mm 0.00 in0.0 mm
06:05 AM 37.3°F2.9°C 34.6°F1.4°C 90% Calm Calm -- 30.37 in1028.4 mb 0.00 in0.0 mm 0.00 in0.0 mm 0.00 in0.0 mm
06:10 AM 37.5°F3.1°C 34.8°F1.6°C 90% Calm Calm -- 30.37 in1028.4 mb 0.00 in0.0 mm 0.00 in0.0 mm 0.00 in0.0 mm
06:15 AM 37.6°F3.1°C 35.2°F1.8°C 91% Calm Calm -- 30.37 in1028.4 mb 0.00 in0.0 mm 0.00 in0.0 mm 0.00 in0.0 mm
06:20 AM 38.0°F3.3°C 35.6°F2.0°C 91% Calm Calm -- 30.37 in1028.4 mb 0.00 in0.0 mm 0.00 in0.0 mm 0.00 in0.0 mm
06:25 AM 38.2°F3.4°C 35.8°F2.1°C 91% Calm Calm -- 30.37 in1028.4 mb 0.00 in0.0 mm 0.00 in0.0 mm 0.00 in0.0 mm
06:30 AM 38.3°F3.5°C 35.9°F2.2°C 91% Calm Calm -- 30.37 in1028.4 mb 0.00 in0.0 mm 0.00 in0.0 mm 0.00 in0.0 mm
06:35 AM 38.8°F3.8°C 36.7°F2.6°C 92% Calm Calm -- 30.37 in1028.4 mb 0.00 in0.0 mm 0.00 in0.0 mm 0.00 in0.0 mm
06:40 AM 39.2°F4.0°C 37.1°F2.8°C 92% Calm Calm -- 30.37 in1028.4 mb 0.00 in0.0 mm 0.00 in0.0 mm 0.00 in0.0 mm
06:45 AM 39.5°F4.2°C 37.4°F3.0°C 92% Calm Calm -- 30.37 in1028.4 mb 0.00 in0.0 mm 0.00 in0.0 mm 0.00 in0.0 mm
06:50 AM 39.6°F4.2°C 37.5°F3.1°C 92% Calm Calm -- 30.37 in1028.4 mb 0.00 in0.0 mm 0.00 in0.0 mm 0.00 in0.0 mm
06:55 AM 39.8°F4.3°C 37.4°F3.0°C 91% Calm Calm -- 30.37 in1028.4 mb 0.00 in0.0 mm 0.00 in0.0 mm 0.00 in0.0 mm
07:00 AM 39.9°F4.4°C 37.5°F3.1°C 91% Calm Calm -- 30.37 in1028.4 mb 0.00 in0.0 mm 0.00 in0.0 mm 0.00 in0.0 mm
07:05 AM 40.1°F4.5°C 37.7°F3.2°C 91% Calm Calm -- 30.37 in1028.4 mb 0.00 in0.0 mm 0.00 in0.0 mm 0.00 in0.0 mm
07:10 AM 40.2°F4.6°C 37.8°F3.2°C 91% Calm Calm -- 30.37 in1028.4 mb 0.00 in0.0 mm 0.00 in0.0 mm 0.00 in0.0 mm
07:15 AM 40.3°F4.6°C 37.9°F3.3°C 91% Calm Calm -- 30.38 in1028.8 mb 0.00 in0.0 mm 0.00 in0.0 mm 0.00 in0.0 mm
07:20 AM 40.6°F4.8°C 38.2°F3.4°C 91% Calm Calm -- 30.38 in1028.8 mb 0.00 in0.0 mm 0.00 in0.0 mm 0.00 in0.0 mm
07:25 AM 40.6°F4.8°C 38.2°F3.4°C 91% Calm Calm -- 30.38 in1028.8 mb 0.00 in0.0 mm 0.00 in0.0 mm 0.00 in0.0 mm
07:30 AM 40.8°F4.9°C 38.4°F3.6°C 91% Calm Calm -- 30.39 in1029.1 mb 0.00 in0.0 mm 0.00 in0.0 mm 0.00 in0.0 mm
07:35 AM 40.8°F4.9°C 38.1°F3.4°C 90% Calm Calm -- 30.39 in1029.1 mb 0.00 in0.0 mm 0.00 in0.0 mm 0.00 in0.0 mm
07:40 AM 40.8°F4.9°C 38.1°F3.4°C 90% Calm Calm -- 30.39 in1029.1 mb 0.00 in0.0 mm 0.00 in0.0 mm 0.00 in0.0 mm
07:45 AM 40.8°F4.9°C 38.1°F3.4°C 90% Calm Calm -- 30.39 in1029.1 mb 0.00 in0.0 mm 0.00 in0.0 mm 0.00 in0.0 mm
07:50 AM 40.9°F4.9°C 38.2°F3.4°C 90% Calm Calm -- 30.39 in1029.1 mb 0.00 in0.0 mm 0.00 in0.0 mm 0.00 in0.0 mm
07:55 AM 41.1°F5.1°C 38.4°F3.6°C 90% Calm Calm -- 30.39 in1029.1 mb 0.00 in0.0 mm 0.00 in0.0 mm 0.00 in0.0 mm
08:00 AM 41.1°F5.1°C 38.4°F3.6°C 90% Calm Calm -- 30.38 in1028.8 mb 0.00 in0.0 mm 0.00 in0.0 mm 0.00 in0.0 mm
08:05 AM 41.1°F5.1°C 38.4°F3.6°C 90% Calm Calm -- 30.38 in1028.8 mb 0.00 in0.0 mm 0.00 in0.0 mm 0.00 in0.0 mm
08:10 AM 41.2°F5.1°C 38.5°F3.6°C 90% Calm Calm -- 30.38 in1028.8 mb 0.00 in0.0 mm 0.00 in0.0 mm 0.00 in0.0 mm
08:15 AM 41.2°F5.1°C 38.2°F3.4°C 89% Calm Calm -- 30.38 in1028.8 mb 0.00 in0.0 mm 0.00 in0.0 mm 0.00 in0.0 mm
08:20 AM 41.2°F5.1°C 38.2°F3.4°C 89% Calm Calm -- 30.38 in1028.8 mb 0.00 in0.0 mm 0.00 in0.0 mm 0.00 in0.0 mm
08:25 AM 41.2°F5.1°C 38.2°F3.4°C 89% Calm Calm -- 30.38 in1028.8 mb 0.00 in0.0 mm 0.00 in0.0 mm 0.00 in0.0 mm
08:30 AM 41.2°F5.1°C 38.2°F3.4°C 89% Calm Calm -- 30.38 in1028.8 mb 0.00 in0.0 mm 0.00 in0.0 mm 0.00 in0.0 mm
08:35 AM 41.2°F5.1°C 38.2°F3.4°C 89% Calm Calm -- 30.38 in1028.8 mb 0.00 in0.0 mm 0.00 in0.0 mm 0.00 in0.0 mm
08:40 AM 41.2°F5.1°C 37.9°F3.3°C 88% Calm Calm -- 30.38 in1028.8 mb 0.00 in0.0 mm 0.00 in0.0 mm 0.00 in0.0 mm
08:45 AM 41.3°F5.2°C 38.0°F3.3°C 88% Calm Calm -- 30.38 in1028.8 mb 0.00 in0.0 mm 0.00 in0.0 mm 0.00 in0.0 mm
08:50 AM 41.3°F5.2°C 38.0°F3.3°C 88% Calm Calm -- 30.38 in1028.8 mb 0.00 in0.0 mm 0.00 in0.0 mm 0.00 in0.0 mm
08:55 AM 41.5°F5.3°C 38.2°F3.4°C 88% Calm Calm -- 30.38 in1028.8 mb 0.00 in0.0 mm 0.00 in0.0 mm 0.00 in0.0 mm
09:00 AM 41.5°F5.3°C 38.2°F3.4°C 88% Calm Calm -- 30.38 in1028.8 mb 0.00 in0.0 mm 0.00 in0.0 mm 0.00 in0.0 mm
09:05 AM 41.5°F5.3°C 38.2°F3.4°C 88% Calm Calm -- 30.38 in1028.8 mb 0.00 in0.0 mm 0.00 in0.0 mm 0.00 in0.0 mm
09:10 AM 41.5°F5.3°C 37.9°F3.3°C 87% Calm Calm -- 30.38 in1028.8 mb 0.00 in0.0 mm 0.00 in0.0 mm 0.00 in0.0 mm
09:15 AM 41.5°F5.3°C 37.9°F3.3°C 87% Calm Calm -- 30.37 in1028.4 mb 0.00 in0.0 mm 0.00 in0.0 mm 0.00 in0.0 mm
09:20 AM 41.6°F5.3°C 38.0°F3.3°C 87% Calm Calm -- 30.37 in1028.4 mb 0.00 in0.0 mm 0.00 in0.0 mm 0.00 in0.0 mm
09:25 AM 41.6°F5.3°C 38.0°F3.3°C 87% Calm Calm -- 30.37 in1028.4 mb 0.00 in0.0 mm 0.00 in0.0 mm 0.00 in0.0 mm
09:30 AM 41.6°F5.3°C 38.0°F3.3°C 87% Calm Calm -- 30.38 in1028.8 mb 0.00 in0.0 mm 0.00 in0.0 mm 0.00 in0.0 mm
09:35 AM 41.6°F5.3°C 38.0°F3.3°C 87% Calm Calm -- 30.38 in1028.8 mb 0.00 in0.0 mm 0.00 in0.0 mm 0.00 in0.0 mm
09:40 AM 41.6°F5.3°C 38.0°F3.3°C 87% Calm Calm -- 30.38 in1028.8 mb 0.00 in0.0 mm 0.00 in0.0 mm 0.00 in0.0 mm
09:45 AM 41.6°F5.3°C 38.0°F3.3°C 87% Calm Calm -- 30.37 in1028.4 mb 0.00 in0.0 mm 0.00 in0.0 mm 0.00 in0.0 mm
09:50 AM 41.6°F5.3°C 38.0°F3.3°C 87% Calm Calm -- 30.37 in1028.4 mb 0.00 in0.0 mm 0.00 in0.0 mm 0.00 in0.0 mm
09:55 AM 41.8°F5.4°C 38.2°F3.4°C 87% Calm Calm -- 30.37 in1028.4 mb 0.00 in0.0 mm 0.00 in0.0 mm 0.00 in0.0 mm
10:00 AM 41.8°F5.4°C 38.2°F3.4°C 87% Calm Calm -- 30.38 in1028.8 mb 0.00 in0.0 mm 0.00 in0.0 mm 0.00 in0.0 mm
10:05 AM 41.6°F5.3°C 37.7°F3.2°C 86% Calm Calm -- 30.38 in1028.8 mb 0.00 in0.0 mm 0.00 in0.0 mm 0.00 in0.0 mm
10:10 AM 41.8°F5.4°C 37.9°F3.3°C 86% Calm Calm -- 30.38 in1028.8 mb 0.00 in0.0 mm 0.00 in0.0 mm 0.00 in0.0 mm
10:15 AM 41.8°F5.4°C 37.9°F3.3°C 86% Calm Calm -- 30.38 in1028.8 mb 0.00 in0.0 mm 0.00 in0.0 mm 0.00 in0.0 mm
10:20 AM 41.8°F5.4°C 37.9°F3.3°C 86% Calm Calm -- 30.38 in1028.8 mb 0.00 in0.0 mm 0.00 in0.0 mm 0.00 in0.0 mm
10:25 AM 42.1°F5.6°C 38.2°F3.4°C 86% Calm Calm -- 30.38 in1028.8 mb 0.00 in0.0 mm 0.00 in0.0 mm 0.00 in0.0 mm
10:30 AM 42.2°F5.7°C 38.3°F3.5°C 86% Calm Calm -- 30.39 in1029.1 mb 0.00 in0.0 mm 0.00 in0.0 mm 0.00 in0.0 mm
10:35 AM 42.3°F5.7°C 38.4°F3.6°C 86% Calm Calm -- 30.39 in1029.1 mb 0.00 in0.0 mm 0.00 in0.0 mm 0.00 in0.0 mm
10:40 AM 42.3°F5.7°C 38.4°F3.6°C 86% Calm Calm -- 30.39 in1029.1 mb 0.00 in0.0 mm 0.00 in0.0 mm 0.00 in0.0 mm
10:45 AM 42.6°F5.9°C 38.7°F3.7°C 86% Calm Calm -- 30.41 in1029.8 mb 0.00 in0.0 mm 0.00 in0.0 mm 0.00 in0.0 mm
10:50 AM 42.8°F6.0°C 38.9°F3.8°C 86% Calm Calm -- 30.41 in1029.8 mb 0.00 in0.0 mm 0.00 in0.0 mm 0.00 in0.0 mm
10:55 AM 42.8°F6.0°C 38.9°F3.8°C 86% Calm Calm -- 30.41 in1029.8 mb 0.00 in0.0 mm 0.00 in0.0 mm 0.00 in0.0 mm
11:00 AM 42.8°F6.0°C 38.6°F3.7°C 85% Calm Calm -- 30.41 in1029.8 mb 0.00 in0.0 mm 0.00 in0.0 mm 0.00 in0.0 mm
11:05 AM 42.9°F6.1°C 38.7°F3.7°C 85% Calm Calm -- 30.41 in1029.8 mb 0.00 in0.0 mm 0.00 in0.0 mm 0.00 in0.0 mm
11:10 AM 43.1°F6.2°C 38.9°F3.8°C 85% Calm Calm -- 30.41 in1029.8 mb 0.00 in0.0 mm 0.00 in0.0 mm 0.00 in0.0 mm
11:15 AM 43.3°F6.3°C 39.1°F3.9°C 85% Calm Calm -- 30.42 in1030.1 mb 0.00 in0.0 mm 0.00 in0.0 mm 0.00 in0.0 mm
11:20 AM 43.5°F6.4°C 39.0°F3.9°C 84% Calm Calm -- 30.42 in1030.1 mb 0.00 in0.0 mm 0.00 in0.0 mm 0.00 in0.0 mm
11:25 AM 43.6°F6.4°C 39.1°F3.9°C 84% Calm Calm -- 30.42 in1030.1 mb 0.00 in0.0 mm 0.00 in0.0 mm 0.00 in0.0 mm
11:30 AM 43.8°F6.6°C 38.7°F3.7°C 82% Calm Calm 1.0 mph1.6 kmh 30.42 in1030.1 mb 0.00 in0.0 mm 0.00 in0.0 mm 0.00 in0.0 mm
11:35 AM 43.8°F6.6°C 38.4°F3.6°C 81% Calm Calm -- 30.42 in1030.1 mb 0.00 in0.0 mm 0.00 in0.0 mm 0.00 in0.0 mm
11:40 AM 43.9°F6.6°C 37.8°F3.2°C 79% Calm Calm -- 30.42 in1030.1 mb 0.00 in0.0 mm 0.00 in0.0 mm 0.00 in0.0 mm
11:45 AM 44.1°F6.7°C 37.7°F3.2°C 78% Calm Calm -- 30.41 in1029.8 mb 0.00 in0.0 mm 0.00 in0.0 mm 0.00 in0.0 mm
11:50 AM 44.3°F6.8°C 37.2°F2.9°C 76% Calm Calm -- 30.41 in1029.8 mb 0.00 in0.0 mm 0.00 in0.0 mm 0.00 in0.0 mm
11:55 AM 44.6°F7.0°C 37.2°F2.9°C 75% Calm Calm -- 30.41 in1029.8 mb 0.00 in0.0 mm 0.00 in0.0 mm 0.00 in0.0 mm
12:00 PM 44.9°F7.2°C 37.1°F2.8°C 74% Calm Calm 1.0 mph1.6 kmh 30.42 in1030.1 mb 0.00 in0.0 mm 0.00 in0.0 mm 0.00 in0.0 mm
12:05 PM 45.1°F7.3°C 37.0°F2.8°C 73% Calm Calm -- 30.42 in1030.1 mb 0.00 in0.0 mm 0.00 in0.0 mm 0.00 in0.0 mm
12:10 PM 45.2°F7.3°C 36.7°F2.6°C 72% Calm Calm -- 30.42 in1030.1 mb 0.00 in0.0 mm 0.00 in0.0 mm 0.00 in0.0 mm
12:15 PM 45.5°F7.5°C 37.0°F2.8°C 72% Calm Calm -- 30.43 in1030.5 mb 0.00 in0.0 mm 0.00 in0.0 mm 0.00 in0.0 mm
12:20 PM 45.7°F7.6°C 37.2°F2.9°C 72% Calm Calm 1.0 mph1.6 kmh 30.43 in1030.5 mb 0.00 in0.0 mm 0.00 in0.0 mm 0.00 in0.0 mm
12:25 PM 45.8°F7.7°C 36.9°F2.7°C 71% Calm Calm -- 30.43 in1030.5 mb 0.00 in0.0 mm 0.00 in0.0 mm 0.00 in0.0 mm
12:30 PM 46.0°F7.8°C 36.8°F2.7°C 70% Calm Calm -- 30.43 in1030.5 mb 0.00 in0.0 mm 0.00 in0.0 mm 0.00 in0.0 mm
12:35 PM 46.1°F7.8°C 36.9°F2.7°C 70% Calm Calm -- 30.43 in1030.5 mb 0.00 in0.0 mm 0.00 in0.0 mm 0.00 in0.0 mm
12:40 PM 46.2°F7.9°C 36.6°F2.6°C 69% Calm Calm -- 30.43 in1030.5 mb 0.00 in0.0 mm 0.00 in0.0 mm 0.00 in0.0 mm
12:45 PM 46.4°F8.0°C 36.4°F2.4°C 68% Calm Calm -- 30.43 in1030.5 mb 0.00 in0.0 mm 0.00 in0.0 mm 0.00 in0.0 mm
12:50 PM 46.5°F8.1°C 36.9°F2.7°C 69% Calm Calm -- 30.43 in1030.5 mb 0.00 in0.0 mm 0.00 in0.0 mm 0.00 in0.0 mm
12:55 PM 46.7°F8.2°C 37.1°F2.8°C 69% Calm Calm -- 30.43 in1030.5 mb 0.00 in0.0 mm 0.00 in0.0 mm 0.00 in0.0 mm
01:00 PM 46.7°F8.2°C 37.1°F2.8°C 69% Calm Calm -- 30.43 in1030.5 mb 0.00 in0.0 mm 0.00 in0.0 mm 0.00 in0.0 mm
01:05 PM 46.8°F8.2°C 37.2°F2.9°C 69% Calm Calm -- 30.43 in1030.5 mb 0.00 in0.0 mm 0.00 in0.0 mm 0.00 in0.0 mm
01:10 PM 46.8°F8.2°C 37.2°F2.9°C 69% Calm Calm -- 30.43 in1030.5 mb 0.00 in0.0 mm 0.00 in0.0 mm 0.00 in0.0 mm
01:15 PM 46.8°F8.2°C 36.8°F2.7°C 68% Calm Calm -- 30.43 in1030.5 mb 0.00 in0.0 mm 0.00 in0.0 mm 0.00 in0.0 mm
01:20 PM 47.0°F8.3°C 36.6°F2.6°C 67% Calm Calm 1.0 mph1.6 kmh 30.43 in1030.5 mb 0.00 in0.0 mm 0.00 in0.0 mm 0.00 in0.0 mm
01:25 PM 47.0°F8.3°C 36.6°F2.6°C 67% Calm Calm -- 30.43 in1030.5 mb 0.00 in0.0 mm 0.00 in0.0 mm 0.00 in0.0 mm
01:30 PM 47.3°F8.5°C 37.3°F2.9°C 68% Calm Calm 1.0 mph1.6 kmh 30.43 in1030.5 mb 0.00 in0.0 mm 0.00 in0.0 mm 0.00 in0.0 mm
01:35 PM 47.6°F8.7°C 37.2°F2.9°C 67% Calm Calm 2.0 mph3.2 kmh 30.43 in1030.5 mb 0.00 in0.0 mm 0.00 in0.0 mm 0.00 in0.0 mm
01:40 PM 47.7°F8.7°C 36.9°F2.7°C 66% 1.0 mph 1.6 kmh 3.0 mph4.8 kmh 30.43 in1030.5 mb 0.00 in0.0 mm 0.00 in0.0 mm 0.00 in0.0 mm
01:45 PM 47.9°F8.8°C 36.7°F2.6°C 65% Calm Calm 1.0 mph1.6 kmh 30.44 in1030.8 mb 0.00 in0.0 mm 0.00 in0.0 mm 0.00 in0.0 mm
01:50 PM 47.9°F8.8°C 36.3°F2.4°C 64% Calm Calm -- 30.44 in1030.8 mb 0.00 in0.0 mm 0.00 in0.0 mm 0.00 in0.0 mm
01:55 PM 48.0°F8.9°C 36.4°F2.4°C 64% Calm Calm 1.0 mph1.6 kmh 30.44 in1030.8 mb 0.00 in0.0 mm 0.00 in0.0 mm 0.00 in0.0 mm
02:00 PM 48.2°F9.0°C 36.6°F2.6°C 64% Calm Calm 2.0 mph3.2 kmh 30.42 in1030.1 mb 0.00 in0.0 mm 0.00 in0.0 mm 0.00 in0.0 mm
02:05 PM 48.2°F9.0°C 36.2°F2.3°C 63% Calm Calm -- 30.42 in1030.1 mb 0.00 in0.0 mm 0.00 in0.0 mm 0.00 in0.0 mm
02:10 PM 48.2°F9.0°C 35.8°F2.1°C 62% Calm Calm -- 30.42 in1030.1 mb 0.00 in0.0 mm 0.00 in0.0 mm 0.00 in0.0 mm
02:15 PM 48.2°F9.0°C 36.2°F2.3°C 63% Calm Calm -- 30.42 in1030.1 mb 0.00 in0.0 mm 0.00 in0.0 mm 0.00 in0.0 mm
02:20 PM 48.2°F9.0°C 36.6°F2.6°C 64% Calm Calm -- 30.42 in1030.1 mb 0.00 in0.0 mm 0.00 in0.0 mm 0.00 in0.0 mm
02:25 PM 48.2°F9.0°C 37.8°F3.2°C 67% Calm Calm -- 30.42 in1030.1 mb 0.00 in0.0 mm 0.00 in0.0 mm 0.00 in0.0 mm
02:30 PM 48.2°F9.0°C 38.1°F3.4°C 68% Calm Calm -- 30.43 in1030.5 mb 0.00 in0.0 mm 0.00 in0.0 mm 0.00 in0.0 mm
02:35 PM 48.2°F9.0°C 38.5°F3.6°C 69% Calm Calm -- 30.43 in1030.5 mb 0.00 in0.0 mm 0.00 in0.0 mm 0.00 in0.0 mm
02:40 PM 48.2°F9.0°C 38.1°F3.4°C 68% Calm Calm -- 30.43 in1030.5 mb 0.00 in0.0 mm 0.00 in0.0 mm 0.00 in0.0 mm
02:45 PM 48.2°F9.0°C 38.1°F3.4°C 68% Calm Calm -- 30.42 in1030.1 mb 0.00 in0.0 mm 0.00 in0.0 mm 0.00 in0.0 mm
02:50 PM 48.2°F9.0°C 38.5°F3.6°C 69% Calm Calm -- 30.42 in1030.1 mb 0.00 in0.0 mm 0.00 in0.0 mm 0.00 in0.0 mm
02:55 PM 48.2°F9.0°C 37.8°F3.2°C 67% Calm Calm -- 30.42 in1030.1 mb 0.00 in0.0 mm 0.00 in0.0 mm 0.00 in0.0 mm
03:00 PM 48.2°F9.0°C 37.8°F3.2°C 67% Calm Calm -- 30.42 in1030.1 mb 0.00 in0.0 mm 0.00 in0.0 mm 0.00 in0.0 mm
03:05 PM 48.3°F9.1°C 37.5°F3.1°C 66% Calm Calm -- 30.42 in1030.1 mb 0.00 in0.0 mm 0.00 in0.0 mm 0.00 in0.0 mm
03:10 PM 48.3°F9.1°C 37.1°F2.8°C 65% Calm Calm -- 30.42 in1030.1 mb 0.00 in0.0 mm 0.00 in0.0 mm 0.00 in0.0 mm
03:15 PM 48.5°F9.2°C 38.0°F3.3°C 67% Calm Calm 1.0 mph1.6 kmh 30.42 in1030.1 mb 0.00 in0.0 mm 0.00 in0.0 mm 0.00 in0.0 mm
03:20 PM 48.5°F9.2°C 38.4°F3.6°C 68% Calm Calm -- 30.42 in1030.1 mb 0.00 in0.0 mm 0.00 in0.0 mm 0.00 in0.0 mm
03:25 PM 48.6°F9.2°C 38.1°F3.4°C 67% Calm Calm -- 30.42 in1030.1 mb 0.00 in0.0 mm 0.00 in0.0 mm 0.00 in0.0 mm
03:30 PM 48.6°F9.2°C 37.0°F2.8°C 64% Calm Calm -- 30.41 in1029.8 mb 0.00 in0.0 mm 0.00 in0.0 mm 0.00 in0.0 mm
03:35 PM 48.5°F9.2°C 35.7°F2.1°C 61% Calm Calm 1.0 mph1.6 kmh 30.41 in1029.8 mb 0.00 in0.0 mm 0.00 in0.0 mm 0.00 in0.0 mm
03:40 PM 48.6°F9.2°C 35.8°F2.1°C 61% Calm Calm -- 30.41 in1029.8 mb 0.00 in0.0 mm 0.00 in0.0 mm 0.00 in0.0 mm
03:45 PM 48.9°F9.4°C 36.5°F2.5°C 62% Calm Calm 1.0 mph1.6 kmh 30.41 in1029.8 mb 0.00 in0.0 mm 0.00 in0.0 mm 0.00 in0.0 mm
03:50 PM 49.2°F9.6°C 36.7°F2.6°C 62% Calm Calm -- 30.41 in1029.8 mb 0.00 in0.0 mm 0.00 in0.0 mm 0.00 in0.0 mm
03:55 PM 49.4°F9.7°C 36.1°F2.3°C 60% Calm Calm 1.0 mph1.6 kmh 30.41 in1029.8 mb 0.00 in0.0 mm 0.00 in0.0 mm 0.00 in0.0 mm
04:00 PM 49.5°F9.7°C 35.3°F1.8°C 58% Calm Calm -- 30.41 in1029.8 mb 0.00 in0.0 mm 0.00 in0.0 mm 0.00 in0.0 mm
04:05 PM 49.8°F9.9°C 36.1°F2.3°C 59% Calm Calm 1.0 mph1.6 kmh 30.41 in1029.8 mb 0.00 in0.0 mm 0.00 in0.0 mm 0.00 in0.0 mm
04:10 PM 50.2°F10.1°C 36.4°F2.4°C 59% Calm Calm 3.0 mph4.8 kmh 30.41 in1029.8 mb 0.00 in0.0 mm 0.00 in0.0 mm 0.00 in0.0 mm
04:15 PM 50.5°F10.3°C 33.5°F0.8°C 52% Calm Calm 2.0 mph3.2 kmh 30.39 in1029.1 mb 0.00 in0.0 mm 0.00 in0.0 mm 0.00 in0.0 mm
04:20 PM 50.8°F10.4°C 32.8°F0.4°C 50% Calm Calm 1.0 mph1.6 kmh 30.39 in1029.1 mb 0.00 in0.0 mm 0.00 in0.0 mm 0.00 in0.0 mm
04:25 PM 51.1°F10.6°C 32.6°F0.3°C 49% Calm Calm 1.0 mph1.6 kmh 30.39 in1029.1 mb 0.00 in0.0 mm 0.00 in0.0 mm 0.00 in0.0 mm
04:30 PM 51.6°F10.9°C 33.1°F0.6°C 49% Calm Calm 2.0 mph3.2 kmh 30.39 in1029.1 mb 0.00 in0.0 mm 0.00 in0.0 mm 0.00 in0.0 mm
04:35 PM 51.9°F11.1°C 31.8°F-0.1°C 46% 1.0 mph 1.6 kmh 3.0 mph4.8 kmh 30.39 in1029.1 mb 0.00 in0.0 mm 0.00 in0.0 mm 0.00 in0.0 mm
04:40 PM 52.3°F11.3°C 33.7°F0.9°C 49% Calm Calm 2.0 mph3.2 kmh 30.39 in1029.1 mb 0.00 in0.0 mm 0.00 in0.0 mm 0.00 in0.0 mm
04:45 PM 52.6°F11.4°C 30.7°F-0.7°C 43% Calm Calm 2.0 mph3.2 kmh 30.38 in1028.8 mb 0.00 in0.0 mm 0.00 in0.0 mm 0.00 in0.0 mm
04:50 PM 52.8°F11.6°C 32.6°F0.3°C 46% 1.0 mph ENE1.6 kmh ENE 5.0 mph8.0 kmh 30.38 in1028.8 mb 0.00 in0.0 mm 0.00 in0.0 mm 0.00 in0.0 mm
04:55 PM 53.1°F11.7°C 32.3°F0.2°C 45% Calm Calm 2.0 mph3.2 kmh 30.38 in1028.8 mb 0.00 in0.0 mm 0.00 in0.0 mm 0.00 in0.0 mm
05:00 PM 53.1°F11.7°C 28.8°F-1.8°C 39% 2.0 mph SW3.2 kmh SW 6.0 mph9.7 kmh 30.38 in1028.8 mb 0.00 in0.0 mm 0.00 in0.0 mm 0.00 in0.0 mm
05:05 PM 53.3°F11.8°C 29.6°F-1.3°C 40% Calm Calm 2.0 mph3.2 kmh 30.38 in1028.8 mb 0.00 in0.0 mm 0.00 in0.0 mm 0.00 in0.0 mm
05:10 PM 53.5°F11.9°C 29.8°F-1.2°C 40% 2.0 mph SW3.2 kmh SW 6.0 mph9.7 kmh 30.38 in1028.8 mb 0.00 in0.0 mm 0.00 in0.0 mm 0.00 in0.0 mm
05:15 PM 53.6°F12.0°C 30.5°F-0.8°C 41% 1.0 mph S1.6 kmh S 3.0 mph4.8 kmh 30.38 in1028.8 mb 0.00 in0.0 mm 0.00 in0.0 mm 0.00 in0.0 mm
05:20 PM 53.5°F11.9°C 29.2°F-1.6°C 39% Calm Calm 1.0 mph1.6 kmh 30.38 in1028.8 mb 0.00 in0.0 mm 0.00 in0.0 mm 0.00 in0.0 mm
05:25 PM 53.6°F12.0°C 29.3°F-1.5°C 39% Calm Calm 2.0 mph3.2 kmh 30.38 in1028.8 mb 0.00 in0.0 mm 0.00 in0.0 mm 0.00 in0.0 mm
05:30 PM 53.8°F12.1°C 31.3°F-0.4°C 42% Calm Calm 2.0 mph3.2 kmh 30.37 in1028.4 mb 0.00 in0.0 mm 0.00 in0.0 mm 0.00 in0.0 mm
05:35 PM 54.1°F12.3°C 30.3°F-0.9°C 40% Calm Calm 3.0 mph4.8 kmh 30.37 in1028.4 mb 0.00 in0.0 mm 0.00 in0.0 mm 0.00 in0.0 mm
05:40 PM 54.4°F12.4°C 31.2°F-0.4°C 41% 2.0 mph SSE3.2 kmh SSE 6.0 mph9.7 kmh 30.37 in1028.4 mb 0.00 in0.0 mm 0.00 in0.0 mm 0.00 in0.0 mm
05:45 PM 54.5°F12.5°C 30.7°F-0.7°C 40% 3.0 mph SSE4.8 kmh SSE 7.0 mph11.3 kmh 30.36 in1028.1 mb 0.00 in0.0 mm 0.00 in0.0 mm 0.00 in0.0 mm
05:50 PM 54.8°F12.7°C 29.7°F-1.3°C 38% 2.0 mph SSW3.2 kmh SSW 7.0 mph11.3 kmh 30.36 in1028.1 mb 0.00 in0.0 mm 0.00 in0.0 mm 0.00 in0.0 mm
05:55 PM 55.1°F12.8°C 29.3°F-1.5°C 37% 1.0 mph SSW1.6 kmh SSW 5.0 mph8.0 kmh 30.36 in1028.1 mb 0.00 in0.0 mm 0.00 in0.0 mm 0.00 in0.0 mm
06:00 PM 55.6°F13.1°C 31.7°F-0.2°C 40% 1.0 mph S1.6 kmh S 4.0 mph6.4 kmh 30.36 in1028.1 mb 0.00 in0.0 mm 0.00 in0.0 mm 0.00 in0.0 mm
06:05 PM 55.9°F13.3°C 30.0°F-1.1°C 37% 2.0 mph S3.2 kmh S 6.0 mph9.7 kmh 30.36 in1028.1 mb 0.00 in0.0 mm 0.00 in0.0 mm 0.00 in0.0 mm
06:10 PM 55.6°F13.1°C 29.7°F-1.3°C 37% 2.0 mph WSW3.2 kmh WSW 6.0 mph9.7 kmh 30.36 in1028.1 mb 0.00 in0.0 mm 0.00 in0.0 mm 0.00 in0.0 mm
06:15 PM 55.6°F13.1°C 29.7°F-1.3°C 37% 1.0 mph WSW1.6 kmh WSW 5.0 mph8.0 kmh 30.37 in1028.4 mb 0.00 in0.0 mm 0.00 in0.0 mm 0.00 in0.0 mm
06:20 PM 55.7°F13.2°C 31.8°F-0.1°C 40% Calm Calm 3.0 mph4.8 kmh 30.37 in1028.4 mb 0.00 in0.0 mm 0.00 in0.0 mm 0.00 in0.0 mm
06:25 PM 55.9°F13.3°C 30.7°F-0.7°C 38% 3.0 mph SSW4.8 kmh SSW 11.0 mph17.7 kmh 30.37 in1028.4 mb 0.00 in0.0 mm 0.00 in0.0 mm 0.00 in0.0 mm
06:30 PM 56.0°F13.3°C 31.4°F-0.3°C 39% 1.0 mph W1.6 kmh W 10.0 mph16.1 kmh 30.35 in1027.8 mb 0.00 in0.0 mm 0.00 in0.0 mm 0.00 in0.0 mm
06:35 PM 56.3°F13.5°C 31.7°F-0.2°C 39% 3.0 mph WSW4.8 kmh WSW 7.0 mph11.3 kmh 30.35 in1027.8 mb 0.00 in0.0 mm 0.00 in0.0 mm 0.00 in0.0 mm
06:40 PM 56.3°F13.5°C 31.0°F-0.6°C 38% 1.0 mph WSW1.6 kmh WSW 5.0 mph8.0 kmh 30.35 in1027.8 mb 0.00 in0.0 mm 0.00 in0.0 mm 0.00 in0.0 mm
06:45 PM 56.3°F13.5°C 32.3°F0.2°C 40% 1.0 mph NW1.6 kmh NW 4.0 mph6.4 kmh 30.34 in1027.4 mb 0.00 in0.0 mm 0.00 in0.0 mm 0.00 in0.0 mm
06:50 PM 56.5°F13.6°C 34.3°F1.3°C 43% 2.0 mph NW3.2 kmh NW 5.0 mph8.0 kmh 30.34 in1027.4 mb 0.00 in0.0 mm 0.00 in0.0 mm 0.00 in0.0 mm
06:55 PM 56.6°F13.7°C 32.6°F0.3°C 40% 1.0 mph WSW1.6 kmh WSW 5.0 mph8.0 kmh 30.34 in1027.4 mb 0.00 in0.0 mm 0.00 in0.0 mm 0.00 in0.0 mm
07:00 PM 56.7°F13.7°C 33.9°F1.1°C 42% 2.0 mph W3.2 kmh W 6.0 mph9.7 kmh 30.34 in1027.4 mb 0.00 in0.0 mm 0.00 in0.0 mm 0.00 in0.0 mm
07:05 PM 56.7°F13.7°C 33.3°F0.7°C 41% 2.0 mph S3.2 kmh S 7.0 mph11.3 kmh 30.34 in1027.4 mb 0.00 in0.0 mm 0.00 in0.0 mm 0.00 in0.0 mm
07:10 PM 56.9°F13.8°C 32.8°F0.4°C 40% 2.0 mph SSE3.2 kmh SSE 7.0 mph11.3 kmh 30.34 in1027.4 mb 0.00 in0.0 mm 0.00 in0.0 mm 0.00 in0.0 mm
07:15 PM 56.9°F13.8°C 32.2°F0.1°C 39% 3.0 mph SSE4.8 kmh SSE 8.0 mph12.9 kmh 30.32 in1026.8 mb 0.00 in0.0 mm 0.00 in0.0 mm 0.00 in0.0 mm
07:20 PM 56.7°F13.7°C 33.9°F1.1°C 42% 2.0 mph SSW3.2 kmh SSW 6.0 mph9.7 kmh 30.32 in1026.8 mb 0.00 in0.0 mm 0.00 in0.0 mm 0.00 in0.0 mm
07:25 PM 56.7°F13.7°C 34.5°F1.4°C 43% 1.0 mph SSW1.6 kmh SSW 3.0 mph4.8 kmh 30.32 in1026.8 mb 0.00 in0.0 mm 0.00 in0.0 mm 0.00 in0.0 mm
07:30 PM 56.7°F13.7°C 32.7°F0.4°C 40% Calm Calm 1.0 mph1.6 kmh 30.32 in1026.8 mb 0.00 in0.0 mm 0.00 in0.0 mm 0.00 in0.0 mm
07:35 PM 56.7°F13.7°C 32.7°F0.4°C 40% 2.0 mph SW3.2 kmh SW 6.0 mph9.7 kmh 30.32 in1026.8 mb 0.00 in0.0 mm 0.00 in0.0 mm 0.00 in0.0 mm
07:40 PM 56.7°F13.7°C 33.3°F0.7°C 41% 3.0 mph SW4.8 kmh SW 7.0 mph11.3 kmh 30.32 in1026.8 mb 0.00 in0.0 mm 0.00 in0.0 mm 0.00 in0.0 mm
07:45 PM 56.9°F13.8°C 34.0°F1.1°C 42% 2.0 mph SW3.2 kmh SW 9.0 mph14.5 kmh 30.30 in1026.1 mb 0.00 in0.0 mm 0.00 in0.0 mm 0.00 in0.0 mm
07:50 PM 56.9°F13.8°C 32.2°F0.1°C 39% 2.0 mph SSE3.2 kmh SSE 5.0 mph8.0 kmh 30.30 in1026.1 mb 0.00 in0.0 mm 0.00 in0.0 mm 0.00 in0.0 mm
07:55 PM 57.0°F13.9°C 32.9°F0.5°C 40% 2.0 mph SSE3.2 kmh SSE 6.0 mph9.7 kmh 30.30 in1026.1 mb 0.00 in0.0 mm 0.00 in0.0 mm 0.00 in0.0 mm
08:00 PM 57.0°F13.9°C 34.1°F1.2°C 42% 1.0 mph SSE1.6 kmh SSE 5.0 mph8.0 kmh 30.30 in1026.1 mb 0.00 in0.0 mm 0.00 in0.0 mm 0.00 in0.0 mm
08:05 PM 57.2°F14.0°C 33.7°F0.9°C 41% 2.0 mph SSE3.2 kmh SSE 5.0 mph8.0 kmh 30.30 in1026.1 mb 0.00 in0.0 mm 0.00 in0.0 mm 0.00 in0.0 mm
08:10 PM 57.2°F14.0°C 33.1°F0.6°C 40% 2.0 mph SE3.2 kmh SE 6.0 mph9.7 kmh 30.30 in1026.1 mb 0.00 in0.0 mm 0.00 in0.0 mm 0.00 in0.0 mm
08:15 PM 57.0°F13.9°C 32.9°F0.5°C 40% 3.0 mph SE4.8 kmh SE 7.0 mph11.3 kmh 30.29 in1025.7 mb 0.00 in0.0 mm 0.00 in0.0 mm 0.00 in0.0 mm
08:20 PM 56.9°F13.8°C 34.0°F1.1°C 42% 3.0 mph SE4.8 kmh SE 7.0 mph11.3 kmh 30.29 in1025.7 mb 0.00 in0.0 mm 0.00 in0.0 mm 0.00 in0.0 mm
08:25 PM 56.7°F13.7°C 33.3°F0.7°C 41% 5.0 mph S8.0 kmh S 9.0 mph14.5 kmh 30.29 in1025.7 mb 0.00 in0.0 mm 0.00 in0.0 mm 0.00 in0.0 mm
08:30 PM 56.5°F13.6°C 33.7°F0.9°C 42% 4.0 mph S6.4 kmh S 7.0 mph11.3 kmh 30.29 in1025.7 mb 0.00 in0.0 mm 0.00 in0.0 mm 0.00 in0.0 mm
08:35 PM 56.3°F13.5°C 34.1°F1.2°C 43% 3.0 mph SSW4.8 kmh SSW 8.0 mph12.9 kmh 30.29 in1025.7 mb 0.00 in0.0 mm 0.00 in0.0 mm 0.00 in0.0 mm
08:40 PM 56.2°F13.4°C 34.0°F1.1°C 43% 2.0 mph S3.2 kmh S 6.0 mph9.7 kmh 30.29 in1025.7 mb 0.00 in0.0 mm 0.00 in0.0 mm 0.00 in0.0 mm
08:45 PM 55.9°F13.3°C 33.7°F0.9°C 43% 5.0 mph S8.0 kmh S 11.0 mph17.7 kmh 30.29 in1025.7 mb 0.00 in0.0 mm 0.00 in0.0 mm 0.00 in0.0 mm
08:50 PM 55.4°F13.0°C 33.9°F1.1°C 44% 4.0 mph SSE6.4 kmh SSE 10.0 mph16.1 kmh 30.29 in1025.7 mb 0.00 in0.0 mm 0.00 in0.0 mm 0.00 in0.0 mm
08:55 PM 55.1°F12.8°C 33.6°F0.9°C 44% 5.0 mph SE8.0 kmh SE 8.0 mph12.9 kmh 30.29 in1025.7 mb 0.00 in0.0 mm 0.00 in0.0 mm 0.00 in0.0 mm
09:00 PM 54.8°F12.7°C 33.9°F1.1°C 45% 3.0 mph SSE4.8 kmh SSE 8.0 mph12.9 kmh 30.29 in1025.7 mb 0.00 in0.0 mm 0.00 in0.0 mm 0.00 in0.0 mm
09:05 PM 54.7°F12.6°C 34.3°F1.3°C 46% 4.0 mph SE6.4 kmh SE 6.0 mph9.7 kmh 30.29 in1025.7 mb 0.00 in0.0 mm 0.00 in0.0 mm 0.00 in0.0 mm
09:10 PM 54.5°F12.5°C 34.1°F1.2°C 46% 4.0 mph S6.4 kmh S 6.0 mph9.7 kmh 30.29 in1025.7 mb 0.00 in0.0 mm 0.00 in0.0 mm 0.00 in0.0 mm
09:15 PM 54.2°F12.3°C 34.4°F1.3°C 47% 4.0 mph SE6.4 kmh SE 7.0 mph11.3 kmh 30.30 in1026.1 mb 0.00 in0.0 mm 0.00 in0.0 mm 0.00 in0.0 mm
09:20 PM 54.1°F12.3°C 34.8°F1.6°C 48% 3.0 mph SSE4.8 kmh SSE 7.0 mph11.3 kmh 30.30 in1026.1 mb 0.00 in0.0 mm 0.00 in0.0 mm 0.00 in0.0 mm
09:25 PM 53.9°F12.2°C 34.7°F1.5°C 48% 3.0 mph SSE4.8 kmh SSE 7.0 mph11.3 kmh 30.30 in1026.1 mb 0.00 in0.0 mm 0.00 in0.0 mm 0.00 in0.0 mm
09:30 PM 53.9°F12.2°C 34.7°F1.5°C 48% 2.0 mph SSE3.2 kmh SSE 5.0 mph8.0 kmh 30.29 in1025.7 mb 0.00 in0.0 mm 0.00 in0.0 mm 0.00 in0.0 mm
09:35 PM 53.8°F12.1°C 35.1°F1.7°C 49% 1.0 mph SSE1.6 kmh SSE 3.0 mph4.8 kmh 30.29 in1025.7 mb 0.00 in0.0 mm 0.00 in0.0 mm 0.00 in0.0 mm
09:40 PM 53.8°F12.1°C 35.1°F1.7°C 49% 1.0 mph SSE1.6 kmh SSE 4.0 mph6.4 kmh 30.29 in1025.7 mb 0.00 in0.0 mm 0.00 in0.0 mm 0.00 in0.0 mm
09:45 PM 53.6°F12.0°C 34.9°F1.6°C 49% 1.0 mph SSE1.6 kmh SSE 6.0 mph9.7 kmh 30.29 in1025.7 mb 0.00 in0.0 mm 0.00 in0.0 mm 0.00 in0.0 mm
09:50 PM 53.5°F11.9°C 34.8°F1.6°C 49% 1.0 mph SSE1.6 kmh SSE 4.0 mph6.4 kmh 30.29 in1025.7 mb 0.00 in0.0 mm 0.00 in0.0 mm 0.00 in0.0 mm
09:55 PM 53.5°F11.9°C 34.3°F1.3°C 48% 1.0 mph SSE1.6 kmh SSE 4.0 mph6.4 kmh 30.29 in1025.7 mb 0.00 in0.0 mm 0.00 in0.0 mm 0.00 in0.0 mm
10:00 PM 53.5°F11.9°C 34.3°F1.3°C 48% 2.0 mph S3.2 kmh S 6.0 mph9.7 kmh 30.28 in1025.4 mb 0.00 in0.0 mm 0.00 in0.0 mm 0.00 in0.0 mm
10:05 PM 53.5°F11.9°C 34.8°F1.6°C 49% 2.0 mph S3.2 kmh S 7.0 mph11.3 kmh 30.28 in1025.4 mb 0.00 in0.0 mm 0.00 in0.0 mm 0.00 in0.0 mm
10:10 PM 53.5°F11.9°C 34.3°F1.3°C 48% 1.0 mph S1.6 kmh S 5.0 mph8.0 kmh 30.28 in1025.4 mb 0.00 in0.0 mm 0.00 in0.0 mm 0.00 in0.0 mm
10:15 PM 53.5°F11.9°C 34.8°F1.6°C 49% Calm Calm 3.0 mph4.8 kmh 30.29 in1025.7 mb 0.00 in0.0 mm 0.00 in0.0 mm 0.00 in0.0 mm
10:20 PM 53.5°F11.9°C 34.8°F1.6°C 49% Calm Calm 3.0 mph4.8 kmh 30.29 in1025.7 mb 0.00 in0.0 mm 0.00 in0.0 mm 0.00 in0.0 mm
10:25 PM 53.5°F11.9°C 34.8°F1.6°C 49% Calm Calm 3.0 mph4.8 kmh 30.29 in1025.7 mb 0.00 in0.0 mm 0.00 in0.0 mm 0.00 in0.0 mm
10:30 PM 53.5°F11.9°C 34.3°F1.3°C 48% 1.0 mph S1.6 kmh S 4.0 mph6.4 kmh 30.28 in1025.4 mb 0.00 in0.0 mm 0.00 in0.0 mm 0.00 in0.0 mm
10:35 PM 53.5°F11.9°C 34.8°F1.6°C 49% Calm Calm 2.0 mph3.2 kmh 30.28 in1025.4 mb 0.00 in0.0 mm 0.00 in0.0 mm 0.00 in0.0 mm
10:40 PM 53.5°F11.9°C 35.8°F2.1°C 51% Calm Calm 3.0 mph4.8 kmh 30.28 in1025.4 mb 0.00 in0.0 mm 0.00 in0.0 mm 0.00 in0.0 mm
10:45 PM 53.5°F11.9°C 35.8°F2.1°C 51% Calm Calm 3.0 mph4.8 kmh 30.27 in1025.1 mb 0.00 in0.0 mm 0.00 in0.0 mm 0.00 in0.0 mm
10:50 PM 53.3°F11.8°C 35.1°F1.7°C 50% Calm Calm 2.0 mph3.2 kmh 30.27 in1025.1 mb 0.00 in0.0 mm 0.00 in0.0 mm 0.00 in0.0 mm
10:55 PM 53.3°F11.8°C 35.6°F2.0°C 51% Calm Calm 2.0 mph3.2 kmh 30.27 in1025.1 mb 0.00 in0.0 mm 0.00 in0.0 mm 0.00 in0.0 mm
11:00 PM 53.2°F11.8°C 35.0°F1.7°C 50% 1.0 mph S1.6 kmh S 3.0 mph4.8 kmh 30.28 in1025.4 mb 0.00 in0.0 mm 0.00 in0.0 mm 0.00 in0.0 mm
11:05 PM 53.2°F11.8°C 35.5°F1.9°C 51% Calm Calm 1.0 mph1.6 kmh 30.28 in1025.4 mb 0.00 in0.0 mm 0.00 in0.0 mm 0.00 in0.0 mm
11:10 PM 53.1°F11.7°C 32.9°F0.5°C 46% 1.0 mph S1.6 kmh S 6.0 mph9.7 kmh 30.28 in1025.4 mb 0.00 in0.0 mm 0.00 in0.0 mm 0.00 in0.0 mm
11:15 PM 53.1°F11.7°C 31.8°F-0.1°C 44% 1.0 mph SSW1.6 kmh SSW 4.0 mph6.4 kmh 30.28 in1025.4 mb 0.00 in0.0 mm 0.00 in0.0 mm 0.00 in0.0 mm
11:20 PM 53.1°F11.7°C 31.2°F-0.4°C 43% 1.0 mph SSW1.6 kmh SSW 4.0 mph6.4 kmh 30.28 in1025.4 mb 0.00 in0.0 mm 0.00 in0.0 mm 0.00 in0.0 mm
11:25 PM 53.1°F11.7°C 31.2°F-0.4°C 43% 2.0 mph SSW3.2 kmh SSW 7.0 mph11.3 kmh 30.28 in1025.4 mb 0.00 in0.0 mm 0.00 in0.0 mm 0.00 in0.0 mm
11:30 PM 53.1°F11.7°C 31.8°F-0.1°C 44% 1.0 mph SSW1.6 kmh SSW 5.0 mph8.0 kmh 30.27 in1025.1 mb 0.00 in0.0 mm 0.00 in0.0 mm 0.00 in0.0 mm
11:35 PM 52.9°F11.6°C 31.0°F-0.6°C 43% 3.0 mph SSW4.8 kmh SSW 11.0 mph17.7 kmh 30.27 in1025.1 mb 0.00 in0.0 mm 0.00 in0.0 mm 0.00 in0.0 mm
11:40 PM 52.8°F11.6°C 30.9°F-0.6°C 43% 3.0 mph SW4.8 kmh SW 7.0 mph11.3 kmh 30.27 in1025.1 mb 0.00 in0.0 mm 0.00 in0.0 mm 0.00 in0.0 mm
11:45 PM 52.6°F11.4°C 30.7°F-0.7°C 43% 2.0 mph SW3.2 kmh SW 6.0 mph9.7 kmh 30.27 in1025.1 mb 0.00 in0.0 mm 0.00 in0.0 mm 0.00 in0.0 mm
11:50 PM 52.5°F11.4°C 30.7°F-0.7°C 43% 1.0 mph SW1.6 kmh SW 7.0 mph11.3 kmh 30.27 in1025.1 mb 0.00 in0.0 mm 0.00 in0.0 mm 0.00 in0.0 mm
11:55 PM 52.5°F11.4°C 31.2°F-0.4°C 44% 2.0 mph SW3.2 kmh SW 6.0 mph9.7 kmh 30.27 in1025.1 mb 0.00 in0.0 mm 0.00 in0.0 mm 0.00 in0.0 mm